Main page
METAR-TAF:

METAR-TAF

Airports :

Bogotá, Colombia

El Dorado International Airport

latitude: 04-43N, longitude: 074-09W, elevation: 2547 m

Current weather observation

The report was made 30 minutes ago, at 10:00 UTC
Wind 4 kt from the North/Northeast
Temperature 10°C
Humidity 93%
Pressure 1029 hPa
Visibility 10 km or more
Broken clouds at a height of 2000 ft

METAR: SKBO 281000Z 03004KT 9999 BKN020 10/09 A3038

Time: 05:30 (10:30 UTC)

Forecast

The report was made 5 hours and 30 minutes ago, at 05:00 UTC
Forecast valid from 28 at 06 UTC to 29 at 06 UTC
Wind 2 kt from variable directions
Visibility 10 km or more
Few clouds at a height of 1500 ft
Scattered clouds at a height of 8000 ft
Temporary
from 28 at 09 UTC to 28 at 12 UTC
Visibility: 7000 m
Scattered clouds at a height of 1300 ft
fog in vicinity
Becoming
from 28 at 12 UTC to 28 at 14 UTC
Wind 10 kt from the East/Southeast

TAF: SKBO 280500Z 2806/2906 VRB02KT 9999 FEW015 SCT080 TEMPO 2809/2812 7000 VCFG SCT013 BECMG 2812/2814 12010KT TX21/2818Z TN05/2811Z

Weather observations and forecasts of more than 4000 airports (METAR and TAF reports).

The available stations are represented by yellow and red dots on the map.

Hover mouse over dot to see the name of the station.

Then click to see weather observations and forecasts.

To change the map : click on the green buttons with a black cross to zoom in, on the green button with a dash to zoom out, or on the green arrows for adjacent maps.


METAR-TAF: